Time;durP1;ratioP1;P1;durP2;ratioP2;P2;SDS_P1;SDS_P2;PMS_P1;PMS_P2;Temp;Humidity;BMP_temperature;BMP_pressure;BME280_temperature;BME280_humidity;BME280_pressure;Samples;Min_cycle;Max_cycle;Signal;HPM_P1;HPM_P2
2021/09/14 00:01:42;;;;;;;24.83;18.35;;;19.70;77.10;;;;;;5036514;28;20056;-69
2021/09/14 00:04:07;;;;;;;26.52;20.65;;;19.60;77.30;;;;;;5036285;28;20512;-68
2021/09/14 00:06:38;;;;;;;27.38;20.35;;;19.60;77.60;;;;;;5035706;28;20430;-72
2021/09/14 00:09:04;;;;;;;25.23;19.58;;;19.50;77.70;;;;;;5036351;28;20053;-68
2021/09/14 00:11:30;;;;;;;28.10;21.17;;;19.40;77.80;;;;;;5036516;28;20033;-68
2021/09/14 00:13:56;;;;;;;28.33;20.60;;;19.30;78.00;;;;;;5036191;28;20095;-68
2021/09/14 00:16:22;;;;;;;26.52;21.23;;;19.10;79.10;;;;;;5036220;28;20456;-68
2021/09/14 00:18:47;;;;;;;27.00;20.35;;;19.10;78.70;;;;;;5035006;28;20452;-67
2021/09/14 00:21:13;;;;;;;25.73;20.92;;;19.00;79.10;;;;;;5035365;28;20112;-72
2021/09/14 00:23:39;;;;;;;25.95;20.90;;;19.00;79.40;;;;;;5035836;28;20071;-72
2021/09/14 00:26:04;;;;;;;27.85;21.05;;;18.90;79.70;;;;;;5036077;28;20030;-72
2021/09/14 00:28:30;;;;;;;26.88;20.90;;;18.80;79.80;;;;;;5035707;28;20029;-72
2021/09/14 00:30:56;;;;;;;28.25;21.17;;;18.70;80.10;;;;;;5035830;28;20022;-72
2021/09/14 00:33:21;;;;;;;26.70;21.05;;;18.60;80.40;;;;;;5034804;28;20030;-73
2021/09/14 00:35:47;;;;;;;26.67;21.17;;;18.60;80.70;;;;;;5034366;28;20464;-72
2021/09/14 00:38:13;;;;;;;26.52;20.15;;;18.60;81.10;;;;;;5034670;28;20029;-71
2021/09/14 00:40:38;;;;;;;24.90;19.35;;;18.70;81.40;;;;;;5035493;28;20081;-71
2021/09/14 00:43:04;;;;;;;23.70;19.33;;;18.70;81.50;;;;;;5035753;28;20423;-72
2021/09/14 00:45:30;;;;;;;25.50;18.35;;;18.70;81.50;;;;;;5035856;28;20033;-72
2021/09/14 00:47:55;;;;;;;22.38;17.70;;;18.80;81.80;;;;;;5035701;28;20113;-72
2021/09/14 00:50:21;;;;;;;23.92;18.17;;;18.90;82.10;;;;;;5035506;28;20017;-72
2021/09/14 00:52:49;;;;;;;23.75;18.23;;;18.90;82.40;;;;;;5033528;28;20037;-73
2021/09/14 00:55:15;;;;;;;23.67;17.83;;;19.00;82.60;;;;;;5035242;28;20057;-73
2021/09/14 00:57:40;;;;;;;22.52;17.92;;;19.10;82.80;;;;;;5044188;28;20442;-74
2021/09/14 01:00:07;;;;;;;23.02;17.65;;;19.10;82.80;;;;;;5055137;28;20025;-72
2021/09/14 01:02:33;;;;;;;24.95;17.80;;;19.10;82.60;;;;;;5053776;28;20368;-72
2021/09/14 01:04:58;;;;;;;24.30;18.23;;;19.20;82.60;;;;;;5055019;28;20049;-72
2021/09/14 01:07:25;;;;;;;24.33;18.00;;;19.20;82.40;;;;;;5053573;28;20120;-72
2021/09/14 01:09:52;;;;;;;22.73;18.02;;;19.20;83.00;;;;;;5054855;28;20517;-72
2021/09/14 01:12:19;;;;;;;24.10;17.80;;;19.20;82.60;;;;;;5054870;28;20577;-72
2021/09/14 01:14:55;;;;;;;23.17;17.92;;;19.20;82.80;;;;;;5054887;28;20028;-73
2021/09/14 01:17:22;;;;;;;21.35;17.38;;;19.20;82.80;;;;;;5054963;28;20029;-73
2021/09/14 01:19:48;;;;;;;22.55;17.25;;;19.20;83.40;;;;;;5053585;28;20421;-72
2021/09/14 01:22:15;;;;;;;22.83;17.45;;;19.20;83.00;;;;;;5050269;28;20108;-72
2021/09/14 01:24:41;;;;;;;24.17;17.60;;;19.10;83.10;;;;;;5034968;28;20075;-72
2021/09/14 01:27:07;;;;;;;22.67;16.75;;;19.10;83.40;;;;;;5035006;28;20108;-73
2021/09/14 01:32:17;;;;;;;22.33;16.98;;;19.10;83.40;;;;;;5034739;28;20036;-73
2021/09/14 01:34:43;;;;;;;22.65;16.38;;;19.10;83.80;;;;;;5034945;28;20025;-72
2021/09/14 01:37:08;;;;;;;19.77;15.73;;;19.10;84.30;;;;;;5035068;28;20026;-72
2021/09/14 01:39:34;;;;;;;19.88;16.30;;;19.10;84.40;;;;;;5034727;28;20052;-72
2021/09/14 01:42:00;;;;;;;20.55;16.83;;;19.10;84.70;;;;;;5033194;28;20030;-72
2021/09/14 01:44:25;;;;;;;22.95;16.13;;;19.10;84.80;;;;;;5033262;28;20056;-73
2021/09/14 01:46:52;;;;;;;20.75;15.93;;;19.10;84.70;;;;;;5032972;28;20026;-72
2021/09/14 01:49:19;;;;;;;19.42;15.20;;;19.10;85.00;;;;;;5034635;28;20178;-72
2021/09/14 01:51:44;;;;;;;23.08;15.88;;;19.00;85.20;;;;;;5033843;28;20111;-72
2021/09/14 01:54:10;;;;;;;19.38;15.75;;;19.10;85.40;;;;;;5033026;28;20038;-72
2021/09/14 01:56:36;;;;;;;19.95;16.25;;;19.00;85.30;;;;;;5032833;28;20033;-73
2021/09/14 01:59:03;;;;;;;22.52;15.90;;;19.10;85.70;;;;;;5034300;28;20022;-73
2021/09/14 02:01:36;;;;;;;19.20;15.15;;;19.10;85.90;;;;;;5032928;28;20025;-73
2021/09/14 02:42:13;;;;;;;17.20;14.20;;;19.60;84.70;;;;;;5033649;28;20028;-73
2021/09/14 02:44:25;;;;;;;;;;;19.60;84.40;;;;;;5029876;28;20068;-72
2021/09/14 03:00:32;;;;;;;19.63;14.45;;;19.50;85.20;;;;;;5033634;28;20506;-72
2021/09/14 03:02:58;;;;;;;18.27;13.95;;;19.50;85.10;;;;;;5037135;28;20025;-72
2021/09/14 03:05:23;;;;;;;18.98;14.60;;;19.50;84.90;;;;;;5037679;28;20053;-72
2021/09/14 03:07:49;;;;;;;19.58;15.32;;;19.60;85.10;;;;;;5035990;28;20036;-73
2021/09/14 03:10:15;;;;;;;17.00;13.90;;;19.60;85.20;;;;;;5037335;28;20029;-73
2021/09/14 03:12:40;;;;;;;19.63;14.35;;;19.60;85.30;;;;;;5037837;28;20057;-73
2021/09/14 03:15:06;;;;;;;22.10;15.20;;;19.60;85.30;;;;;;5037157;28;20482;-73
2021/09/14 03:17:32;;;;;;;18.00;15.27;;;19.60;85.50;;;;;;5036955;28;20393;-73
2021/09/14 03:19:58;;;;;;;18.20;15.00;;;19.50;85.50;;;;;;5035859;28;20072;-73
2021/09/14 03:22:23;;;;;;;21.55;16.73;;;19.60;85.80;;;;;;5036995;28;20060;-74
2021/09/14 03:24:49;;;;;;;18.35;15.48;;;19.50;85.90;;;;;;5035625;28;20037;-73
2021/09/14 03:27:15;;;;;;;23.00;15.98;;;19.50;86.00;;;;;;5035772;28;20052;-73
2021/09/14 03:29:40;;;;;;;19.50;15.77;;;19.50;86.20;;;;;;5035780;28;20448;-73
2021/09/14 03:32:06;;;;;;;20.92;15.80;;;19.50;86.00;;;;;;5035785;28;20057;-73
2021/09/14 03:34:32;;;;;;;20.67;15.38;;;19.60;86.70;;;;;;5037030;28;20029;-73
2021/09/14 03:36:58;;;;;;;22.98;16.35;;;19.60;86.40;;;;;;5036723;28;20403;-75
2021/09/14 03:39:23;;;;;;;22.25;15.77;;;19.70;86.50;;;;;;5036531;28;20021;-74
2021/09/14 03:41:49;;;;;;;21.45;16.45;;;19.70;86.20;;;;;;5036675;28;20038;-73
2021/09/14 03:44:14;;;;;;;21.73;16.02;;;19.80;86.30;;;;;;5035533;28;20505;-73
2021/09/14 03:46:40;;;;;;;24.23;18.08;;;19.90;86.00;;;;;;5036448;28;20033;-73
2021/09/14 03:49:06;;;;;;;22.15;16.65;;;20.00;86.00;;;;;;5035406;28;20426;-73
2021/09/14 03:51:31;;;;;;;21.70;16.33;;;20.00;85.80;;;;;;5036028;28;20105;-74
2021/09/14 03:53:57;;;;;;;22.80;17.88;;;20.10;85.30;;;;;;5035056;28;20080;-73
2021/09/14 03:56:23;;;;;;;22.58;16.60;;;20.20;85.20;;;;;;5036662;28;20026;-74
2021/09/14 03:58:48;;;;;;;20.83;16.90;;;20.20;84.90;;;;;;5035218;28;20124;-73
2021/09/14 04:01:14;;;;;;;22.15;16.80;;;20.20;84.10;;;;;;5043624;28;20029;-72
2021/09/14 04:03:43;;;;;;;22.08;17.80;;;20.10;83.90;;;;;;5047307;28;20045;-70
2021/09/14 04:08:54;;;;;;;;;;;19.90;84.20;;;;;;5036890;28;20065;-69
2021/09/14 04:11:21;;;;;;;25.00;19.15;;;19.80;83.90;;;;;;5034948;28;20325;-70
2021/09/14 04:13:51;;;;;;;22.40;16.63;;;19.80;84.70;;;;;;5037534;28;20499;-70
2021/09/14 04:16:18;;;;;;;23.10;18.38;;;19.80;85.00;;;;;;5047039;28;20033;-71
2021/09/14 04:18:44;;;;;;;19.95;16.88;;;19.90;85.10;;;;;;5037507;28;20025;-70
2021/09/14 04:21:10;;;;;;;20.05;16.90;;;19.90;84.90;;;;;;5033582;28;20373;-72
2021/09/14 04:23:35;;;;;;;22.35;17.73;;;19.90;84.60;;;;;;5036321;28;20037;-71
2021/09/14 04:26:01;;;;;;;22.92;18.30;;;20.00;84.60;;;;;;5034467;28;20032;-69
2021/09/14 04:28:27;;;;;;;23.02;17.98;;;20.00;84.40;;;;;;5043593;28;20028;-70
2021/09/14 04:30:52;;;;;;;18.98;16.10;;;20.00;84.40;;;;;;5047988;28;20036;-69
2021/09/14 04:33:18;;;;;;;21.70;17.85;;;20.00;84.10;;;;;;5045014;28;20486;-67
2021/09/14 04:35:43;;;;;;;24.60;18.60;;;20.10;84.10;;;;;;5045621;28;20032;-68
2021/09/14 04:38:09;;;;;;;21.08;16.95;;;20.10;84.40;;;;;;5055511;28;20458;-69
2021/09/14 04:40:35;;;;;;;22.85;17.85;;;20.20;84.00;;;;;;5057763;28;20439;-69
2021/09/14 04:43:00;;;;;;;20.50;16.35;;;20.20;83.80;;;;;;5043927;28;20029;-69
2021/09/14 04:45:26;;;;;;;22.95;17.48;;;20.30;83.50;;;;;;5035562;28;20108;-69
2021/09/14 04:47:52;;;;;;;24.10;17.52;;;20.40;83.40;;;;;;5038625;28;20108;-68
2021/09/14 04:50:17;;;;;;;20.50;16.38;;;20.50;82.90;;;;;;5038832;28;20083;-70
2021/09/14 04:52:43;;;;;;;21.25;16.17;;;20.60;82.50;;;;;;5045398;28;20434;-71
2021/09/14 04:55:09;;;;;;;23.98;17.15;;;20.70;81.80;;;;;;5048338;28;20445;-70
2021/09/14 04:57:34;;;;;;;21.63;16.77;;;20.80;81.40;;;;;;5037715;28;20422;-69
2021/09/14 05:00:00;;;;;;;20.58;16.73;;;20.90;80.90;;;;;;5042502;28;20030;-70
2021/09/14 05:02:26;;;;;;;23.10;15.70;;;21.00;80.40;;;;;;5037345;28;20080;-69
2021/09/14 05:04:52;;;;;;;20.45;16.20;;;21.10;79.90;;;;;;5048142;28;20052;-83
2021/09/14 05:07:17;;;;;;;18.08;15.45;;;21.30;79.40;;;;;;5047983;28;20042;-68
2021/09/14 05:09:43;;;;;;;19.45;15.23;;;21.40;78.80;;;;;;5041533;28;20025;-68
2021/09/14 05:12:09;;;;;;;21.38;16.17;;;21.50;78.60;;;;;;5034536;28;20501;-78
2021/09/14 05:14:35;;;;;;;21.35;16.73;;;21.60;78.40;;;;;;5034479;28;20085;-75
2021/09/14 05:17:00;;;;;;;21.25;16.23;;;21.60;78.20;;;;;;5047478;28;20502;-75
2021/09/14 05:19:34;;;;;;;21.75;15.27;;;21.80;78.20;;;;;;5045528;28;20106;-74
2021/09/14 05:22:01;;;;;;;20.13;15.02;;;22.00;78.00;;;;;;5033451;28;20025;-74
2021/09/14 05:24:28;;;;;;;19.80;14.18;;;22.20;77.70;;;;;;5057814;28;20120;-68
2021/09/14 05:26:55;;;;;;;18.45;13.30;;;22.70;77.40;;;;;;5053463;28;20462;-68
2021/09/14 05:29:20;;;;;;;18.15;13.75;;;23.30;75.70;;;;;;5056209;28;20042;-69
2021/09/14 05:31:47;;;;;;;16.58;12.23;;;24.10;74.50;;;;;;5034572;28;20025;-68
2021/09/14 05:34:13;;;;;;;15.73;12.05;;;25.00;71.60;;;;;;5034784;28;20040;-67
2021/09/14 05:36:40;;;;;;;15.25;11.57;;;25.60;68.90;;;;;;5043931;28;20035;-68
2021/09/14 05:39:06;;;;;;;15.20;10.90;;;26.30;67.40;;;;;;5074389;28;20458;-68
2021/09/14 05:41:31;;;;;;;15.63;11.07;;;26.80;64.80;;;;;;5068214;28;20111;-68
2021/09/14 05:43:57;;;;;;;16.67;10.98;;;27.00;63.40;;;;;;5071043;28;20033;-68
2021/09/14 05:46:24;;;;;;;14.75;11.35;;;26.90;62.30;;;;;;5062903;28;20402;-70
2021/09/14 05:48:50;;;;;;;14.35;11.05;;;26.70;62.20;;;;;;5060579;28;20115;-67
2021/09/14 05:51:16;;;;;;;14.88;11.38;;;26.70;62.50;;;;;;5062996;28;20048;-69
2021/09/14 05:53:42;;;;;;;16.15;11.80;;;26.60;62.30;;;;;;5054487;28;20037;-70
2021/09/14 05:56:07;;;;;;;17.05;11.85;;;26.30;62.30;;;;;;5054140;28;20029;-68
2021/09/14 05:58:33;;;;;;;13.38;10.57;;;26.10;62.30;;;;;;5052720;28;20102;-68
2021/09/14 06:00:59;;;;;;;14.13;11.02;;;25.90;62.40;;;;;;5055357;28;20104;-71
2021/09/14 06:03:28;;;;;;;15.55;11.05;;;25.70;62.70;;;;;;5052319;28;20091;-73
2021/09/14 06:05:54;;;;;;;15.95;10.70;;;25.60;62.60;;;;;;5065360;28;20144;-66
2021/09/14 06:08:20;;;;;;;14.20;10.32;;;25.50;63.00;;;;;;5072810;28;20070;-68
2021/09/14 06:10:45;;;;;;;12.20;9.85;;;25.60;63.30;;;;;;5062910;28;20505;-68
2021/09/14 06:13:11;;;;;;;12.20;9.73;;;26.20;63.10;;;;;;5045958;28;20376;-68
2021/09/14 06:15:36;;;;;;;15.10;9.52;;;26.90;61.80;;;;;;5042358;28;20028;-69
2021/09/14 06:18:02;;;;;;;12.90;9.73;;;27.70;60.30;;;;;;5074115;28;20614;-69
2021/09/14 06:20:28;;;;;;;12.02;8.75;;;28.30;58.60;;;;;;5072192;28;20032;-70
2021/09/14 06:22:53;;;;;;;13.32;9.18;;;28.60;56.90;;;;;;5071834;28;20054;-69
2021/09/14 06:25:19;;;;;;;12.93;9.48;;;28.40;56.00;;;;;;5071611;28;20029;-69
2021/09/14 06:27:45;;;;;;;13.23;8.50;;;28.20;55.90;;;;;;5073487;28;20102;-69
2021/09/14 06:30:11;;;;;;;11.20;8.18;;;28.00;56.30;;;;;;5073731;28;20029;-69
2021/09/14 06:32:37;;;;;;;14.35;9.93;;;27.90;56.50;;;;;;5072173;28;20028;-69
2021/09/14 06:35:03;;;;;;;15.40;8.70;;;27.80;56.80;;;;;;5073616;28;20108;-69
2021/09/14 06:37:29;;;;;;;12.15;8.02;;;27.60;56.90;;;;;;5058025;28;20458;-69
2021/09/14 06:39:54;;;;;;;13.00;7.63;;;28.00;57.20;;;;;;5032321;28;20121;-69
2021/09/14 06:42:20;;;;;;;9.38;7.20;;;28.60;56.50;;;;;;5032269;28;20029;-69
2021/09/14 06:44:46;;;;;;;8.85;6.70;;;29.30;55.30;;;;;;5032079;28;20025;-69
2021/09/14 06:47:11;;;;;;;8.90;6.88;;;29.40;53.50;;;;;;5033579;28;20383;-69
2021/09/14 06:49:37;;;;;;;11.35;6.75;;;29.20;52.90;;;;;;5033392;28;20022;-69
2021/09/14 06:52:03;;;;;;;10.45;7.93;;;29.10;53.20;;;;;;5033283;28;20040;-68
2021/09/14 06:54:29;;;;;;;10.82;7.15;;;29.10;53.30;;;;;;5033908;28;20037;-68
2021/09/14 06:56:54;;;;;;;11.45;7.22;;;29.00;53.30;;;;;;5033560;28;20475;-68
2021/09/14 06:59:20;;;;;;;9.10;6.75;;;28.80;53.50;;;;;;5033393;28;20116;-69
2021/09/14 07:01:46;;;;;;;9.15;6.80;;;28.60;53.90;;;;;;5033693;28;20026;-68
2021/09/14 07:04:12;;;;;;;9.15;7.07;;;28.50;53.80;;;;;;5033170;28;20044;-68
2021/09/14 07:06:38;;;;;;;8.65;6.60;;;28.50;54.20;;;;;;5032616;28;20116;-68
2021/09/14 07:09:03;;;;;;;8.80;6.85;;;28.50;53.70;;;;;;5047687;28;20113;-68
2021/09/14 07:11:29;;;;;;;9.13;6.72;;;28.60;53.70;;;;;;5052115;28;20021;-68
2021/09/14 07:13:57;;;;;;;9.35;6.20;;;28.70;53.40;;;;;;5052962;28;20064;-68
2021/09/14 07:16:23;;;;;;;9.18;6.05;;;28.70;53.00;;;;;;5053201;28;20482;-68
2021/09/14 07:18:49;;;;;;;11.63;6.22;;;28.60;52.90;;;;;;5053336;28;20021;-68
2021/09/14 07:21:15;;;;;;;9.32;5.75;;;28.50;53.00;;;;;;5053290;28;20029;-68
2021/09/14 07:23:41;;;;;;;9.02;5.55;;;28.70;53.20;;;;;;5053160;28;20029;-68
2021/09/14 07:26:07;;;;;;;7.85;5.65;;;28.90;52.70;;;;;;5053003;28;20033;-68
2021/09/14 07:28:32;;;;;;;9.52;5.70;;;29.10;52.20;;;;;;5051653;28;20032;-68
2021/09/14 07:30:58;;;;;;;9.85;5.50;;;29.40;51.90;;;;;;5051927;28;20441;-68
2021/09/14 07:33:24;;;;;;;9.45;6.22;;;29.70;51.20;;;;;;5051634;28;20110;-68
2021/09/14 07:35:49;;;;;;;9.35;5.03;;;29.80;50.30;;;;;;5053149;28;20067;-68
2021/09/14 07:38:15;;;;;;;8.18;5.10;;;29.70;50.30;;;;;;5044993;28;20112;-68
2021/09/14 07:40:41;;;;;;;5.40;4.28;;;29.50;50.10;;;;;;5032945;28;20071;-68
2021/09/14 07:43:06;;;;;;;8.18;4.70;;;29.40;49.60;;;;;;5033000;28;20029;-68
2021/09/14 07:45:33;;;;;;;9.38;5.10;;;29.30;49.70;;;;;;5031887;28;20033;-68
2021/09/14 07:47:58;;;;;;;9.10;4.90;;;29.20;49.80;;;;;;5034677;28;20025;-68
2021/09/14 07:50:24;;;;;;;7.15;5.13;;;29.10;50.00;;;;;;5036825;28;20036;-68
2021/09/14 07:52:51;;;;;;;8.38;4.70;;;29.00;50.30;;;;;;5035202;28;20502;-68
2021/09/14 07:55:17;;;;;;;7.60;4.82;;;29.00;50.30;;;;;;5035309;28;20033;-68
2021/09/14 07:57:43;;;;;;;7.53;5.03;;;29.30;50.70;;;;;;5036605;28;20026;-67
2021/09/14 08:00:09;;;;;;;7.93;4.55;;;30.10;50.50;;;;;;5036309;28;20464;-68
2021/09/14 08:02:35;;;;;;;5.53;3.60;;;30.80;49.20;;;;;;5036331;28;20026;-68
2021/09/14 08:05:01;;;;;;;5.65;3.60;;;31.10;47.20;;;;;;5036191;28;20041;-69
2021/09/14 08:07:27;;;;;;;5.78;3.58;;;31.10;46.20;;;;;;5034583;28;20037;-68
2021/09/14 08:09:52;;;;;;;7.00;4.05;;;31.40;46.30;;;;;;5034991;28;20116;-70
2021/09/14 08:12:18;;;;;;;7.15;3.35;;;32.50;46.00;;;;;;5036345;28;20128;-69
2021/09/14 08:14:44;;;;;;;6.93;3.75;;;33.60;44.70;;;;;;5036178;28;20527;-69
2021/09/14 08:17:12;;;;;;;5.78;3.38;;;34.30;43.40;;;;;;5036529;28;20037;-69
2021/09/14 08:19:41;;;;;;;8.05;3.47;;;34.50;42.40;;;;;;5034743;28;20033;-67
2021/09/14 08:22:11;;;;;;;6.03;3.28;;;34.50;41.90;;;;;;5036143;28;20021;-67
2021/09/14 08:24:37;;;;;;;8.10;3.63;;;34.40;41.40;;;;;;5035768;28;20044;-67
2021/09/14 08:27:04;;;;;;;6.00;3.63;;;33.70;41.40;;;;;;5035732;28;20108;-67
2021/09/14 08:29:29;;;;;;;6.13;3.80;;;33.10;42.40;;;;;;5035618;28;20472;-68
2021/09/14 08:31:56;;;;;;;5.85;3.40;;;32.80;43.10;;;;;;5035867;28;20108;-68
2021/09/14 08:34:22;;;;;;;5.50;3.40;;;33.10;43.20;;;;;;5035930;28;20063;-68
2021/09/14 08:36:48;;;;;;;4.53;2.90;;;33.50;42.60;;;;;;5034500;28;20468;-68
2021/09/14 08:39:14;;;;;;;6.68;2.95;;;33.70;42.10;;;;;;5035826;28;20034;-69
2021/09/14 08:41:40;;;;;;;6.05;3.30;;;34.10;41.70;;;;;;5034443;28;20033;-68
2021/09/14 08:44:05;;;;;;;5.35;3.05;;;34.40;41.40;;;;;;5035772;28;20040;-68
2021/09/14 08:46:34;;;;;;;5.32;3.10;;;34.70;41.10;;;;;;5035651;28;20021;-68
2021/09/14 08:49:01;;;;;;;7.85;3.70;;;35.10;40.90;;;;;;5035564;28;20021;-69
2021/09/14 08:51:27;;;;;;;6.10;3.30;;;35.20;40.70;;;;;;5035220;28;20104;-68
2021/09/14 08:53:53;;;;;;;6.53;4.18;;;35.40;40.40;;;;;;5034028;28;20128;-68
2021/09/14 08:56:18;;;;;;;6.30;4.20;;;35.50;40.10;;;;;;5034421;28;20033;-68
2021/09/14 08:59:02;;;;;;;6.43;3.92;;;35.50;40.30;;;;;;5035262;28;20063;-68
2021/09/14 09:01:28;;;;;;;5.93;3.63;;;35.50;40.40;;;;;;5035661;28;20398;-68
2021/09/14 09:04:05;;;;;;;5.30;3.40;;;35.60;40.30;;;;;;5033932;28;20052;-68
2021/09/14 09:06:36;;;;;;;4.80;3.45;;;35.60;40.20;;;;;;5033680;28;20048;-68
2021/09/14 09:09:14;;;;;;;6.07;3.50;;;35.70;39.90;;;;;;5054661;28;20532;-68
2021/09/14 09:11:54;;;;;;;6.82;4.05;;;35.90;40.10;;;;;;5054984;28;20127;-68
2021/09/14 09:14:30;;;;;;;6.85;4.15;;;36.00;39.90;;;;;;5053523;28;20033;-69
2021/09/14 09:17:05;;;;;;;9.15;4.97;;;36.20;39.90;;;;;;5053512;28;20448;-69
2021/09/14 09:19:30;;;;;;;10.02;4.75;;;36.40;39.70;;;;;;5054089;28;20029;-68
2021/09/14 09:21:59;;;;;;;6.32;4.38;;;36.40;39.60;;;;;;5054514;28;20021;-68
2021/09/14 09:24:25;;;;;;;8.05;4.63;;;36.50;39.70;;;;;;5054907;28;20033;-68
2021/09/14 09:26:51;;;;;;;9.93;4.30;;;36.50;39.50;;;;;;5053417;28;20179;-69
2021/09/14 09:29:23;;;;;;;5.45;4.03;;;35.60;39.40;;;;;;5053287;28;20029;-69
2021/09/14 09:31:51;;;;;;;10.18;4.57;;;34.50;40.70;;;;;;5054724;28;20025;-68
2021/09/14 09:34:25;;;;;;;8.55;4.47;;;33.60;41.80;;;;;;5054892;28;20032;-69
2021/09/14 09:37:03;;;;;;;6.38;4.00;;;32.70;43.00;;;;;;5053586;28;20029;-68
2021/09/14 09:39:36;;;;;;;7.38;4.40;;;31.70;43.60;;;;;;5034835;28;20088;-68
2021/09/14 09:42:06;;;;;;;6.15;4.35;;;31.00;45.00;;;;;;5033356;28;20032;-68
2021/09/14 09:44:31;;;;;;;6.13;3.90;;;30.40;46.10;;;;;;5034315;28;20030;-68
2021/09/14 09:46:58;;;;;;;10.55;5.30;;;29.80;46.20;;;;;;5032953;28;20040;-68
2021/09/14 09:49:25;;;;;;;7.75;4.28;;;29.30;46.70;;;;;;5034708;28;20026;-68
2021/09/14 09:51:53;;;;;;;10.80;4.78;;;28.90;47.50;;;;;;5033074;28;20035;-68
2021/09/14 09:54:19;;;;;;;8.90;4.55;;;28.50;48.00;;;;;;5034312;28;20036;-69
2021/09/14 09:56:45;;;;;;;8.48;5.07;;;28.00;49.10;;;;;;5033119;28;20033;-67
2021/09/14 09:59:15;;;;;;;11.48;4.60;;;27.70;50.10;;;;;;5034858;28;20064;-68
2021/09/14 10:01:43;;;;;;;6.75;5.00;;;27.50;51.20;;;;;;5034320;28;20037;-68
2021/09/14 10:04:11;;;;;;;8.43;4.95;;;27.60;52.00;;;;;;5032714;28;20384;-68
2021/09/14 10:06:47;;;;;;;7.03;4.53;;;28.70;51.70;;;;;;5035544;28;20025;-68
2021/09/14 10:09:13;;;;;;;9.45;4.25;;;30.00;50.00;;;;;;5052769;28;20036;-68
2021/09/14 10:11:39;;;;;;;6.20;4.15;;;31.00;48.10;;;;;;5054170;28;20029;-68
2021/09/14 10:14:06;;;;;;;6.43;3.90;;;31.80;46.20;;;;;;5052644;28;20056;-68
2021/09/14 10:16:35;;;;;;;6.90;3.60;;;32.50;45.20;;;;;;5052574;28;20032;-68
2021/09/14 10:19:31;;;;;;;5.72;3.63;;;32.70;44.20;;;;;;5053781;28;20474;-69
2021/09/14 10:22:02;;;;;;;5.68;3.45;;;32.40;44.00;;;;;;5052308;28;20079;-68
2021/09/14 10:24:29;;;;;;;4.47;3.17;;;32.40;43.40;;;;;;5051297;28;20049;-69
2021/09/14 10:27:14;;;;;;;6.00;3.28;;;32.70;42.40;;;;;;5053928;28;20037;-69
2021/09/14 10:29:41;;;;;;;5.18;3.58;;;33.10;41.90;;;;;;5052379;28;20036;-69
2021/09/14 10:32:13;;;;;;;8.15;3.70;;;33.30;41.90;;;;;;5051739;28;20029;-68
2021/09/14 10:34:50;;;;;;;5.90;3.00;;;33.50;41.20;;;;;;5053759;28;20033;-69
2021/09/14 10:37:17;;;;;;;4.97;3.30;;;33.60;40.70;;;;;;5053601;28;20029;-69
2021/09/14 10:39:45;;;;;;;5.10;3.15;;;33.70;40.40;;;;;;5051755;28;20074;-69
2021/09/14 10:42:19;;;;;;;6.00;3.20;;;33.30;40.50;;;;;;5053211;28;20086;-70
2021/09/14 10:44:46;;;;;;;5.90;2.90;;;32.90;40.20;;;;;;5053472;28;20061;-69
2021/09/14 10:47:18;;;;;;;7.18;2.88;;;33.00;40.30;;;;;;5053415;28;20525;-69
2021/09/14 10:50:05;;;;;;;7.25;2.80;;;33.10;40.40;;;;;;5052504;28;20025;-69
2021/09/14 10:52:42;;;;;;;8.32;3.00;;;33.30;40.10;;;;;;5052105;28;20040;-69
2021/09/14 10:55:11;;;;;;;7.88;3.28;;;33.40;39.90;;;;;;5050806;28;20407;-69
2021/09/14 10:57:44;;;;;;;10.07;3.70;;;33.50;39.40;;;;;;5053396;28;20380;-68
2021/09/14 11:00:16;;;;;;;9.13;3.80;;;33.80;39.30;;;;;;5053536;28;20033;-69
2021/09/14 11:02:42;;;;;;;8.45;3.47;;;34.00;39.00;;;;;;5051998;28;20159;-68
2021/09/14 11:05:10;;;;;;;7.47;2.53;;;34.00;38.90;;;;;;5053387;28;20049;-68
2021/09/14 11:07:36;;;;;;;8.60;3.53;;;34.00;38.50;;;;;;5053309;28;20041;-69
2021/09/14 11:10:10;;;;;;;7.72;3.03;;;34.00;38.60;;;;;;5052085;28;20116;-69
2021/09/14 11:12:36;;;;;;;5.13;2.40;;;34.20;38.50;;;;;;5053262;28;20025;-68
2021/09/14 11:15:02;;;;;;;8.88;3.13;;;34.20;38.30;;;;;;5053414;28;20029;-69
2021/09/14 11:17:29;;;;;;;5.82;2.58;;;34.20;38.30;;;;;;5053441;28;20102;-70
2021/09/14 11:20:11;;;;;;;4.03;2.25;;;34.00;38.00;;;;;;5052790;28;20506;-69
2021/09/14 11:22:39;;;;;;;6.43;3.40;;;34.00;38.40;;;;;;5049461;28;20095;-69
2021/09/14 11:25:12;;;;;;;6.70;3.28;;;34.00;38.40;;;;;;5056887;28;20033;-69
2021/09/14 11:27:37;;;;;;;7.50;2.55;;;34.30;38.20;;;;;;5057015;28;20021;-68
2021/09/14 11:30:03;;;;;;;5.20;2.58;;;34.20;37.70;;;;;;5056985;28;20391;-69
2021/09/14 11:32:29;;;;;;;7.78;3.42;;;34.10;38.00;;;;;;5055637;28;20048;-68
2021/09/14 11:34:56;;;;;;;5.85;2.67;;;34.00;38.30;;;;;;5057215;28;20049;-68
2021/09/14 11:37:26;;;;;;;7.75;3.00;;;33.90;38.10;;;;;;5056855;28;20032;-68
2021/09/14 11:39:51;;;;;;;6.53;2.90;;;33.70;37.90;;;;;;5056837;28;20090;-68
2021/09/14 11:42:17;;;;;;;3.97;2.50;;;33.60;37.90;;;;;;5056772;28;20455;-68
2021/09/14 11:44:43;;;;;;;7.72;3.08;;;33.50;37.90;;;;;;5056386;28;20029;-68
2021/09/14 11:47:09;;;;;;;4.20;2.40;;;33.40;38.00;;;;;;5055508;28;20059;-68
2021/09/14 11:49:36;;;;;;;5.22;2.53;;;33.30;38.00;;;;;;5056841;28;20391;-68
2021/09/14 11:52:04;;;;;;;4.60;2.85;;;33.20;38.30;;;;;;5056522;28;20021;-68
2021/09/14 11:54:35;;;;;;;6.53;2.70;;;33.10;38.30;;;;;;5039330;28;20046;-68
2021/09/14 11:57:02;;;;;;;11.20;4.53;;;33.00;38.70;;;;;;5035341;28;20116;-69
2021/09/14 11:59:36;;;;;;;6.15;3.40;;;32.90;39.00;;;;;;5034865;28;20029;-68
2021/09/14 12:02:04;;;;;;;5.40;3.05;;;32.80;39.20;;;;;;5035429;28;20025;-69
2021/09/14 12:04:30;;;;;;;5.13;2.97;;;32.60;39.20;;;;;;5034796;28;20057;-68
2021/09/14 12:06:59;;;;;;;5.03;2.72;;;32.40;39.60;;;;;;5035043;28;20034;-68
2021/09/14 12:09:30;;;;;;;5.97;3.10;;;32.10;39.50;;;;;;5036392;28;20022;-69
2021/09/14 12:12:07;;;;;;;8.23;3.00;;;31.80;40.00;;;;;;5036305;28;20026;-69
2021/09/14 12:14:33;;;;;;;5.68;2.80;;;31.50;40.00;;;;;;5035275;28;20033;-68
2021/09/14 12:17:04;;;;;;;4.70;2.67;;;31.30;40.20;;;;;;5036204;28;20365;-69
2021/09/14 12:19:34;;;;;;;6.47;2.80;;;31.00;40.80;;;;;;5035046;28;20029;-68
2021/09/14 12:22:00;;;;;;;4.35;2.80;;;30.80;41.10;;;;;;5034767;28;20392;-69
2021/09/14 12:24:26;;;;;;;4.13;2.53;;;30.30;41.40;;;;;;5036635;28;20092;-68
2021/09/14 12:26:55;;;;;;;5.85;2.90;;;29.60;41.80;;;;;;5036336;28;20025;-68
2021/09/14 12:29:22;;;;;;;4.88;2.83;;;29.20;42.80;;;;;;5034588;28;20036;-68
2021/09/14 12:31:48;;;;;;;5.78;3.22;;;29.00;43.40;;;;;;5036732;28;20087;-68
2021/09/14 12:34:15;;;;;;;4.00;2.50;;;28.90;44.10;;;;;;5054352;28;20037;-68
2021/09/14 12:36:43;;;;;;;4.47;2.65;;;28.70;44.00;;;;;;5054535;28;20025;-68
2021/09/14 12:39:09;;;;;;;6.70;3.03;;;28.70;44.50;;;;;;5055679;28;20036;-68
2021/09/14 12:41:35;;;;;;;5.45;3.20;;;28.60;44.60;;;;;;5054509;28;20084;-68
2021/09/14 12:44:01;;;;;;;9.10;2.90;;;28.50;44.90;;;;;;5055705;28;20525;-68
2021/09/14 12:46:27;;;;;;;4.47;2.95;;;28.30;44.90;;;;;;5055664;28;20056;-68
2021/09/14 12:48:52;;;;;;;4.90;3.10;;;27.80;45.20;;;;;;5055503;28;20044;-68
2021/09/14 12:51:18;;;;;;;11.27;3.13;;;27.40;45.50;;;;;;5055162;28;20061;-69
2021/09/14 12:53:44;;;;;;;4.13;2.92;;;27.30;46.10;;;;;;5042672;28;20040;-68
2021/09/14 12:56:10;;;;;;;4.45;3.00;;;27.20;46.20;;;;;;5035274;28;20036;-68
2021/09/14 12:58:36;;;;;;;5.57;3.40;;;27.10;46.00;;;;;;5035415;28;20384;-68
2021/09/14 13:01:03;;;;;;;5.90;2.85;;;27.00;45.80;;;;;;5034076;28;20057;-68
2021/09/14 13:03:28;;;;;;;6.65;3.70;;;26.70;45.60;;;;;;5035236;28;20048;-67
2021/09/14 13:05:54;;;;;;;5.45;3.28;;;26.40;45.60;;;;;;5035888;28;20050;-68
2021/09/14 13:08:20;;;;;;;6.95;3.22;;;26.20;45.90;;;;;;5033789;28;20030;-69
2021/09/14 13:10:47;;;;;;;6.72;2.83;;;26.00;46.30;;;;;;5035370;28;20037;-67
2021/09/14 13:16:12;;;;;;;4.32;2.50;;;25.70;46.60;;;;;;5035298;28;20037;-67
2021/09/14 13:18:43;;;;;;;4.75;2.60;;;25.60;46.60;;;;;;5034883;28;20452;-68
2021/09/14 13:21:10;;;;;;;5.28;2.70;;;25.50;46.50;;;;;;5033046;28;20037;-68
2021/09/14 13:23:37;;;;;;;8.90;3.83;;;25.60;46.80;;;;;;5040268;28;20033;-67
2021/09/14 13:26:04;;;;;;;5.75;2.80;;;25.60;46.90;;;;;;5053575;28;20025;-68
2021/09/14 13:28:30;;;;;;;4.57;2.60;;;25.70;46.60;;;;;;5054561;28;20128;-68
2021/09/14 13:30:56;;;;;;;5.03;3.10;;;25.70;46.60;;;;;;5054718;28;20036;-69
2021/09/14 13:33:21;;;;;;;10.95;3.10;;;25.70;46.30;;;;;;5054669;28;20085;-67
2021/09/14 13:35:48;;;;;;;24.05;5.68;;;25.50;46.30;;;;;;5054766;28;20032;-68
2021/09/14 13:38:14;;;;;;;7.93;3.10;;;25.50;46.50;;;;;;5054455;28;20067;-67